createdAt,value
2023-04-20T00:02:31.861Z,9.23
2023-04-20T00:06:34.438Z,9.23
2023-04-20T00:10:36.843Z,9.18
2023-04-20T00:14:38.936Z,9.12
2023-04-20T00:18:41.280Z,9.28
2023-04-20T00:22:43.463Z,9.32
2023-04-20T00:26:45.625Z,9.51
2023-04-20T00:30:48.432Z,9.56
2023-04-20T00:34:50.731Z,9.59
2023-04-20T00:38:52.890Z,9.58
2023-04-20T00:42:56.229Z,9.65
2023-04-20T00:46:59.587Z,9.59
2023-04-20T00:51:02.471Z,9.64
2023-04-20T00:55:06.180Z,9.59
2023-04-20T00:59:08.621Z,9.68
2023-04-20T01:03:11.088Z,9.73
2023-04-20T01:07:13.729Z,9.68
2023-04-20T01:11:17.064Z,9.65
2023-04-20T01:15:19.306Z,9.76
2023-04-20T01:19:21.910Z,9.73
2023-04-20T01:23:24.792Z,9.78
2023-04-20T01:27:26.865Z,9.84
2023-04-20T01:31:28.952Z,9.83
2023-04-20T01:35:33.440Z,9.86
2023-04-20T01:39:38.952Z,9.87
2023-04-20T01:43:41.319Z,9.95
2023-04-20T01:47:43.397Z,9.89
2023-04-20T01:51:45.502Z,9.88
2023-04-20T01:55:48.736Z,9.94
2023-04-20T01:59:50.865Z,9.75
2023-04-20T02:03:53.239Z,9.77
2023-04-20T02:07:56.458Z,9.84
2023-04-20T02:11:58.255Z,9.88
2023-04-20T02:16:00.211Z,9.79
2023-04-20T02:20:04.568Z,9.94
2023-04-20T02:24:06.972Z,9.89
2023-04-20T02:28:09.004Z,9.81
2023-04-20T02:32:13.749Z,9.73
2023-04-20T02:36:17.230Z,9.77
2023-04-20T02:40:19.335Z,9.65
2023-04-20T02:44:21.480Z,9.69
2023-04-20T02:48:24.441Z,9.65
2023-04-20T02:52:26.597Z,9.63
2023-04-20T02:56:32.320Z,9.73
2023-04-20T03:00:38.817Z,9.70
2023-04-20T03:04:43.719Z,9.77
2023-04-20T03:08:56.567Z,9.82
2023-04-20T03:13:18.938Z,9.70
2023-04-20T03:17:36.708Z,9.66
2023-04-20T03:21:39.757Z,9.69
2023-04-20T03:25:42.705Z,9.62
2023-04-20T03:29:52.614Z,9.68
2023-04-20T03:33:54.608Z,9.56
2023-04-20T03:37:56.723Z,9.55
2023-04-20T03:41:59.238Z,9.50
2023-04-20T03:46:01.245Z,9.44
2023-04-20T03:50:04.280Z,9.44
2023-04-20T03:54:07.103Z,9.38
2023-04-20T03:58:09.505Z,9.45
2023-04-20T04:02:28.266Z,9.48
2023-04-20T04:06:32.134Z,9.50
2023-04-20T04:10:33.866Z,9.52
2023-04-20T04:14:36.067Z,9.54
2023-04-20T04:18:43.565Z,9.58
2023-04-20T04:22:45.701Z,9.74
2023-04-20T04:27:07.031Z,9.74
2023-04-20T04:31:14.711Z,9.74
2023-04-20T04:35:17.904Z,9.71
2023-04-20T04:39:20.916Z,9.75
2023-04-20T04:43:35.083Z,9.74
2023-04-20T04:47:54.024Z,9.91
2023-04-20T04:51:56.262Z,9.80
2023-04-20T04:55:58.444Z,9.89
2023-04-20T05:00:00.598Z,9.94
2023-04-20T05:04:02.874Z,10.12
2023-04-20T05:08:05.534Z,10.09
2023-04-20T05:12:07.773Z,10.47
2023-04-20T05:16:09.890Z,10.72
2023-04-20T05:20:12.347Z,10.93
2023-04-20T05:24:14.661Z,10.92
2023-04-20T05:28:16.769Z,11.09
2023-04-20T05:32:18.868Z,11.13
2023-04-20T05:36:21.013Z,11.03
2023-04-20T05:40:22.988Z,11.19
2023-04-20T05:44:25.107Z,11.24
2023-04-20T05:48:29.805Z,11.34
2023-04-20T05:52:32.143Z,11.56
2023-04-20T05:56:34.235Z,11.86
2023-04-20T06:00:36.370Z,11.83
2023-04-20T06:04:38.805Z,12.06
2023-04-20T06:08:41.138Z,12.19
2023-04-20T06:12:43.129Z,12.21
2023-04-20T06:16:45.240Z,12.54
2023-04-20T06:20:47.325Z,12.63
2023-04-20T06:24:49.408Z,13.04
2023-04-20T06:28:53.051Z,13.18
2023-04-20T06:32:55.257Z,13.59
2023-04-20T06:36:57.416Z,13.83
2023-04-20T06:41:02.115Z,13.90
2023-04-20T06:45:06.399Z,14.16
2023-04-20T06:49:08.403Z,14.22
2023-04-20T06:53:10.515Z,14.52
2023-04-20T06:57:12.583Z,14.79
2023-04-20T07:01:14.631Z,15.12
2023-04-20T07:05:18.093Z,15.33
2023-04-20T07:09:20.868Z,15.47
2023-04-20T07:13:22.951Z,15.85
2023-04-20T07:17:28.106Z,16.22
2023-04-20T07:21:31.552Z,16.46
2023-04-20T07:25:33.869Z,16.17
2023-04-20T07:29:36.159Z,15.99
2023-04-20T07:33:39.590Z,16.30
2023-04-20T07:37:41.697Z,16.59
2023-04-20T07:41:43.959Z,16.65
2023-04-20T07:45:46.109Z,16.52
2023-04-20T07:49:48.202Z,16.61
2023-04-20T07:53:50.294Z,16.66
2023-04-20T07:57:52.370Z,17.00
2023-04-20T08:02:02.563Z,17.04
2023-04-20T08:06:04.815Z,17.51
2023-04-20T08:10:07.819Z,17.75
2023-04-20T08:14:09.786Z,17.84
2023-04-20T08:18:11.905Z,17.88
2023-04-20T08:22:14.198Z,18.16
2023-04-20T08:26:17.249Z,17.87
2023-04-20T08:30:19.200Z,17.52
2023-04-20T08:34:21.746Z,17.52
2023-04-20T08:38:33.454Z,17.98
2023-04-20T08:42:36.378Z,18.12
2023-04-20T08:46:41.233Z,18.30
2023-04-20T08:50:43.479Z,18.48
2023-04-20T08:54:55.954Z,18.54
2023-04-20T08:58:58.905Z,18.64
2023-04-20T09:03:01.982Z,18.26
2023-04-20T09:07:04.453Z,18.22
2023-04-20T09:11:07.278Z,18.31
2023-04-20T09:15:10.952Z,18.42
2023-04-20T09:19:14.058Z,18.58
2023-04-20T09:23:17.150Z,18.56
2023-04-20T09:27:19.655Z,18.58
2023-04-20T09:31:22.802Z,18.75
2023-04-20T09:35:25.020Z,18.75
2023-04-20T09:39:27.138Z,19.05
2023-04-20T09:43:30.638Z,19.18
2023-04-20T09:47:36.800Z,19.37
2023-04-20T09:51:47.016Z,18.75
2023-04-20T09:55:51.252Z,18.86
2023-04-20T09:59:54.493Z,18.46
2023-04-20T10:03:57.580Z,18.76
2023-04-20T10:08:01.276Z,18.86
2023-04-20T10:12:08.105Z,19.37
2023-04-20T10:16:18.321Z,19.58
2023-04-20T10:20:26.474Z,20.00
2023-04-20T10:24:32.195Z,19.90
2023-04-20T10:28:41.863Z,19.93
2023-04-20T10:32:43.944Z,19.93
2023-04-20T10:36:46.176Z,19.91
2023-04-20T10:40:48.317Z,19.43
2023-04-20T10:44:51.889Z,19.91
2023-04-20T10:48:58.065Z,20.09
2023-04-20T10:53:00.578Z,19.02
2023-04-20T10:57:03.242Z,18.96
2023-04-20T11:01:05.893Z,18.93
2023-04-20T11:05:12.463Z,19.72
2023-04-20T11:09:23.727Z,19.80
2023-04-20T11:13:29.148Z,20.03
2023-04-20T11:17:33.580Z,19.93
2023-04-20T11:21:41.513Z,20.59
2023-04-20T11:25:53.743Z,21.19
2023-04-20T11:29:58.247Z,20.30
2023-04-20T11:34:00.596Z,19.65
2023-04-20T11:38:02.941Z,19.27
2023-04-20T11:42:05.812Z,19.58
2023-04-20T11:46:18.719Z,20.40
2023-04-20T11:50:21.961Z,20.60
2023-04-20T11:54:24.489Z,20.78
2023-04-20T11:58:27.152Z,20.57
2023-04-20T12:02:29.387Z,19.35
2023-04-20T12:06:34.462Z,18.71
2023-04-20T12:10:36.454Z,18.64
2023-04-20T12:14:38.574Z,18.28
2023-04-20T12:18:41.375Z,18.64
2023-04-20T12:22:43.453Z,19.22
2023-04-20T12:26:45.966Z,19.79
2023-04-20T12:30:48.057Z,19.73
2023-04-20T12:34:50.085Z,19.19
2023-04-20T12:38:52.570Z,19.00
2023-04-20T12:42:54.632Z,18.84
2023-04-20T12:46:56.691Z,18.85
2023-04-20T12:50:58.879Z,19.26
2023-04-20T12:55:01.763Z,19.96
2023-04-20T12:59:03.590Z,19.83
2023-04-20T13:03:05.810Z,19.45
2023-04-20T13:07:08.284Z,19.26
2023-04-20T13:11:15.534Z,19.10
2023-04-20T13:15:31.740Z,19.17
2023-04-20T13:19:40.084Z,19.24
2023-04-20T13:23:42.198Z,18.94
2023-04-20T13:27:44.532Z,18.82
2023-04-20T13:31:48.401Z,19.34
2023-04-20T13:35:50.735Z,19.94
2023-04-20T13:39:52.739Z,20.47
2023-04-20T13:43:57.974Z,20.77
2023-04-20T13:48:00.073Z,20.04
2023-04-20T13:52:02.646Z,19.62
2023-04-20T13:56:05.213Z,19.18
2023-04-20T14:00:08.348Z,18.98
2023-04-20T14:04:10.832Z,18.73
2023-04-20T14:08:13.825Z,19.21
2023-04-20T14:12:16.150Z,19.53
2023-04-20T14:16:18.461Z,20.08
2023-04-20T14:20:20.619Z,20.38
2023-04-20T14:24:22.884Z,20.35
2023-04-20T14:28:24.974Z,20.10
2023-04-20T14:32:27.425Z,19.33
2023-04-20T14:36:30.601Z,19.22
2023-04-20T14:40:32.791Z,19.00
2023-04-20T14:44:34.805Z,18.82
2023-04-20T14:48:38.187Z,18.71
2023-04-20T14:52:40.225Z,18.92
2023-04-20T14:56:42.340Z,18.77
2023-04-20T15:00:44.969Z,18.89
2023-04-20T15:04:47.335Z,18.92
2023-04-20T15:08:49.711Z,19.14
2023-04-20T15:12:51.986Z,19.17
2023-04-20T15:16:54.289Z,19.07
2023-04-20T15:20:56.440Z,18.82
2023-04-20T15:24:58.400Z,18.43
2023-04-20T15:29:00.546Z,18.36
2023-04-20T15:33:04.396Z,18.45
2023-04-20T15:37:07.766Z,20.68
2023-04-20T15:41:09.819Z,22.83
2023-04-20T15:45:11.943Z,23.73
2023-04-20T15:49:13.977Z,22.07
2023-04-20T15:53:16.037Z,20.52
2023-04-20T15:57:18.033Z,19.45
2023-04-20T16:01:20.591Z,18.72
2023-04-20T16:05:22.846Z,18.27
2023-04-20T16:09:25.075Z,18.03
2023-04-20T16:13:27.099Z,17.85
2023-04-20T16:17:29.381Z,17.82
2023-04-20T16:21:31.885Z,17.74
2023-04-20T16:25:34.485Z,17.80
2023-04-20T16:29:36.533Z,17.53
2023-04-20T16:33:38.659Z,17.37
2023-04-20T16:37:40.687Z,17.44
2023-04-20T16:41:42.767Z,17.32
2023-04-20T16:45:44.757Z,17.27
2023-04-20T16:49:47.349Z,17.22
2023-04-20T16:53:49.552Z,17.20
2023-04-20T16:57:51.735Z,17.19
2023-04-20T17:01:54.191Z,17.05
2023-04-20T17:05:56.273Z,17.03
2023-04-20T17:09:58.508Z,16.71
2023-04-20T17:14:00.502Z,16.48
2023-04-20T17:18:02.574Z,16.30
2023-04-20T17:22:04.875Z,16.10
2023-04-20T17:26:06.989Z,15.98
2023-04-20T17:30:09.644Z,15.90
2023-04-20T17:34:11.663Z,15.60
2023-04-20T17:38:13.809Z,15.17
2023-04-20T17:42:16.943Z,14.75
2023-04-20T17:46:19.075Z,14.50
2023-04-20T17:50:22.567Z,14.21
2023-04-20T17:54:25.740Z,14.00
2023-04-20T17:58:27.452Z,13.74
2023-04-20T18:02:29.558Z,13.51
2023-04-20T18:06:33.236Z,13.17
2023-04-20T18:10:35.402Z,12.97
2023-04-20T18:14:39.152Z,12.71
2023-04-20T18:18:41.204Z,12.54
2023-04-20T18:22:43.328Z,12.34
2023-04-20T18:26:46.025Z,12.15
2023-04-20T18:30:48.420Z,11.83
2023-04-20T18:34:50.682Z,11.70
2023-04-20T18:38:54.054Z,11.27
2023-04-20T18:42:57.312Z,11.20
2023-04-20T18:46:59.813Z,11.18
2023-04-20T18:51:02.073Z,11.10
2023-04-20T18:55:04.313Z,11.05
2023-04-20T18:59:08.480Z,11.01
2023-04-20T19:03:11.004Z,10.94
2023-04-20T19:07:13.232Z,10.89
2023-04-20T19:11:15.534Z,10.84
2023-04-20T19:15:22.551Z,10.73
2023-04-20T19:19:24.561Z,10.67
2023-04-20T19:23:26.640Z,10.54
2023-04-20T19:27:28.698Z,10.39
2023-04-20T19:31:36.770Z,10.26
2023-04-20T19:35:39.026Z,10.11
2023-04-20T19:39:41.053Z,9.95
2023-04-20T19:43:43.046Z,9.83
2023-04-20T19:47:45.536Z,9.56
2023-04-20T19:51:47.718Z,9.54
2023-04-20T19:55:49.881Z,9.41
2023-04-20T19:59:52.189Z,9.41
2023-04-20T20:03:54.516Z,9.38
2023-04-20T20:07:56.661Z,9.42
2023-04-20T20:12:01.094Z,9.36
2023-04-20T20:16:04.056Z,9.40
2023-04-20T20:20:07.047Z,9.53
2023-04-20T20:24:09.215Z,9.55
2023-04-20T20:28:11.437Z,9.40
2023-04-20T20:32:13.457Z,9.40
2023-04-20T20:36:17.729Z,9.31
2023-04-20T20:40:20.114Z,9.31
2023-04-20T20:44:22.192Z,9.41
2023-04-20T20:48:24.364Z,9.46
2023-04-20T20:52:26.387Z,9.43
2023-04-20T20:56:28.446Z,9.70
2023-04-20T21:00:30.849Z,9.70
2023-04-20T21:04:33.272Z,9.48
2023-04-20T21:08:35.325Z,9.58
2023-04-20T21:12:37.536Z,9.57
2023-04-20T21:16:39.709Z,9.67
2023-04-20T21:20:41.851Z,9.89
2023-04-20T21:24:44.033Z,10.23
2023-04-20T21:28:46.019Z,10.24
2023-04-20T21:32:48.127Z,10.51
2023-04-20T21:36:50.252Z,10.53
2023-04-20T21:40:52.485Z,10.37
2023-04-20T21:44:54.519Z,10.37
2023-04-20T21:48:56.559Z,10.31
2023-04-20T21:52:58.571Z,10.28
2023-04-20T21:57:00.623Z,10.26
2023-04-20T22:01:03.005Z,10.31
2023-04-20T22:05:05.544Z,10.35
2023-04-20T22:09:07.989Z,10.39
2023-04-20T22:13:10.100Z,10.47
2023-04-20T22:17:14.388Z,10.48
2023-04-20T22:21:16.536Z,10.38
2023-04-20T22:25:18.642Z,10.37
2023-04-20T22:29:21.018Z,10.17
2023-04-20T22:33:23.206Z,9.94
2023-04-20T22:37:25.933Z,9.64
2023-04-20T22:41:27.874Z,9.41
2023-04-20T22:45:29.893Z,9.23
2023-04-20T22:49:32.012Z,9.07
2023-04-20T22:53:34.192Z,8.97
2023-04-20T22:57:36.590Z,8.96
2023-04-20T23:01:38.678Z,8.84
2023-04-20T23:05:44.385Z,8.73
2023-04-20T23:09:46.440Z,8.61
2023-04-20T23:13:48.494Z,8.64
2023-04-20T23:17:50.949Z,8.48
2023-04-20T23:21:52.991Z,8.54
2023-04-20T23:25:55.015Z,8.55
2023-04-20T23:29:56.979Z,8.58
2023-04-20T23:33:59.367Z,8.59
2023-04-20T23:38:01.415Z,8.48
2023-04-20T23:42:04.936Z,8.47
2023-04-20T23:46:07.758Z,8.55
2023-04-20T23:50:10.025Z,8.34
2023-04-20T23:54:12.008Z,8.44
2023-04-20T23:58:14.076Z,8.31
